createdAt,value
2023-01-08T00:00:22.307Z,96.90
2023-01-08T00:02:51.605Z,97.00
2023-01-08T00:05:19.616Z,97.10
2023-01-08T00:07:47.587Z,97.20
2023-01-08T00:10:15.624Z,97.20
2023-01-08T00:12:43.524Z,97.10
2023-01-08T00:15:11.471Z,97.20
2023-01-08T00:17:39.583Z,97.30
2023-01-08T00:20:07.602Z,97.40
2023-01-08T00:22:35.694Z,97.70
2023-01-08T00:25:04.564Z,97.50
2023-01-08T00:27:32.444Z,97.60
2023-01-08T00:30:00.386Z,97.70
2023-01-08T00:32:28.256Z,97.60
2023-01-08T00:34:56.677Z,97.80
2023-01-08T00:37:24.539Z,97.70
2023-01-08T00:39:52.407Z,97.70
2023-01-08T00:42:20.278Z,97.80
2023-01-08T00:44:48.366Z,97.80
2023-01-08T00:47:16.213Z,97.90
2023-01-08T00:49:44.311Z,97.70
2023-01-08T00:52:12.519Z,97.90
2023-01-08T00:54:40.623Z,97.90
2023-01-08T00:57:08.511Z,98.00
2023-01-08T00:59:36.360Z,98.10
2023-01-08T01:02:04.256Z,98.10
2023-01-08T01:04:32.366Z,98.00
2023-01-08T01:07:00.260Z,98.00
2023-01-08T01:09:28.189Z,98.00
2023-01-08T01:11:56.284Z,98.10
2023-01-08T01:14:24.216Z,98.20
2023-01-08T01:16:52.343Z,98.40
2023-01-08T01:19:20.439Z,98.50
2023-01-08T01:21:48.353Z,98.40
2023-01-08T01:24:16.296Z,98.70
2023-01-08T01:26:44.336Z,98.70
2023-01-08T01:29:13.284Z,98.80
2023-01-08T01:31:41.131Z,98.90
2023-01-08T01:34:10.101Z,98.90
2023-01-08T01:36:38.154Z,99.10
2023-01-08T01:39:06.332Z,99.10
2023-01-08T01:41:38.814Z,99.00
2023-01-08T01:44:25.542Z,99.20
2023-01-08T01:46:53.533Z,99.30
2023-01-08T01:49:23.308Z,99.30
2023-01-08T01:51:53.726Z,99.30
2023-01-08T01:54:22.374Z,99.40
2023-01-08T01:56:50.287Z,99.20
2023-01-08T01:59:18.188Z,99.10
2023-01-08T02:01:46.385Z,99.20
2023-01-08T02:04:14.856Z,99.20
2023-01-08T02:06:45.410Z,99.30
2023-01-08T02:09:14.441Z,99.40
2023-01-08T02:11:46.246Z,99.60
2023-01-08T02:14:31.320Z,99.90
2023-01-08T02:17:06.987Z,99.60
2023-01-08T02:19:41.513Z,99.40
2023-01-08T02:22:22.236Z,99.70
2023-01-08T02:24:59.872Z,99.50
2023-01-08T02:27:30.143Z,99.80
2023-01-08T02:29:58.541Z,99.70
2023-01-08T02:32:27.429Z,99.70
2023-01-08T02:34:55.910Z,99.70
2023-01-08T02:37:23.896Z,99.60
2023-01-08T02:40:10.483Z,99.80
2023-01-08T02:42:38.430Z,99.90
2023-01-08T02:45:09.379Z,99.90
2023-01-08T02:47:40.364Z,99.90
2023-01-08T02:50:11.381Z,99.90
2023-01-08T02:52:43.357Z,99.90
2023-01-08T02:55:11.709Z,99.90
2023-01-08T02:57:40.335Z,99.90
2023-01-08T03:00:08.738Z,99.90
2023-01-08T03:02:38.461Z,99.90
2023-01-08T03:05:13.549Z,99.90
2023-01-08T03:07:41.697Z,99.90
2023-01-08T03:10:10.004Z,99.90
2023-01-08T03:12:56.381Z,99.90
2023-01-08T03:15:50.609Z,99.90
2023-01-08T03:18:24.912Z,99.90
2023-01-08T03:20:53.354Z,99.90
2023-01-08T03:23:23.274Z,99.90
2023-01-08T03:25:51.354Z,99.90
2023-01-08T03:28:22.223Z,99.90
2023-01-08T03:30:50.831Z,99.90
2023-01-08T03:33:19.873Z,99.90
2023-01-08T03:35:49.378Z,99.90
2023-01-08T03:38:40.091Z,99.90
2023-01-08T03:41:10.208Z,99.90
2023-01-08T03:43:38.132Z,99.90
2023-01-08T03:46:10.110Z,99.90
2023-01-08T03:48:38.922Z,99.90
2023-01-08T03:51:10.429Z,99.90
2023-01-08T03:53:38.815Z,99.90
2023-01-08T03:56:06.955Z,99.90
2023-01-08T03:58:35.086Z,99.90
2023-01-08T04:01:02.905Z,99.90
2023-01-08T04:03:31.192Z,99.90
2023-01-08T04:06:02.313Z,99.90
2023-01-08T04:08:30.303Z,99.90
2023-01-08T04:10:58.256Z,99.90
2023-01-08T04:13:26.330Z,99.90
2023-01-08T04:15:54.469Z,99.90
2023-01-08T04:18:22.457Z,99.90
2023-01-08T04:20:50.392Z,99.90
2023-01-08T04:23:18.422Z,99.90
2023-01-08T04:25:46.351Z,99.90
2023-01-08T04:28:14.445Z,99.90
2023-01-08T04:30:42.548Z,99.90
2023-01-08T04:33:10.638Z,99.90
2023-01-08T04:35:38.493Z,99.90
2023-01-08T04:38:06.450Z,99.90
2023-01-08T04:40:34.815Z,99.90
2023-01-08T04:43:02.697Z,99.90
2023-01-08T04:45:30.634Z,99.90
2023-01-08T04:47:59.180Z,99.90
2023-01-08T04:50:27.610Z,99.90
2023-01-08T04:52:55.575Z,99.90
2023-01-08T04:55:23.768Z,99.90
2023-01-08T04:57:51.612Z,99.90
2023-01-08T05:00:19.915Z,99.90
2023-01-08T05:02:47.957Z,99.90
2023-01-08T05:05:16.155Z,99.90
2023-01-08T05:07:44.064Z,99.90
2023-01-08T05:10:11.887Z,99.90
2023-01-08T05:12:39.831Z,99.90
2023-01-08T05:15:07.962Z,99.90
2023-01-08T05:17:35.883Z,99.90
2023-01-08T05:20:03.989Z,99.90
2023-01-08T05:22:31.973Z,99.90
2023-01-08T05:24:59.924Z,99.90
2023-01-08T05:27:28.661Z,99.90
2023-01-08T05:29:56.667Z,99.90
2023-01-08T05:32:24.547Z,99.90
2023-01-08T05:34:52.758Z,99.90
2023-01-08T05:37:20.688Z,99.90
2023-01-08T05:39:48.761Z,99.90
2023-01-08T05:42:16.594Z,99.90
2023-01-08T05:44:44.701Z,99.90
2023-01-08T05:47:12.596Z,99.90
2023-01-08T05:49:40.730Z,99.90
2023-01-08T05:52:08.552Z,99.90
2023-01-08T05:54:36.486Z,99.90
2023-01-08T05:57:04.637Z,99.90
2023-01-08T05:59:32.507Z,99.90
2023-01-08T06:02:00.443Z,99.90
2023-01-08T06:04:28.450Z,99.90
2023-01-08T06:06:56.405Z,99.90
2023-01-08T06:09:24.600Z,99.90
2023-01-08T06:11:53.486Z,99.90
2023-01-08T06:14:21.325Z,99.90
2023-01-08T06:16:49.206Z,99.90
2023-01-08T06:19:19.383Z,99.90
2023-01-08T06:21:47.213Z,99.90
2023-01-08T06:24:15.232Z,99.90
2023-01-08T06:26:43.165Z,99.90
2023-01-08T06:29:11.257Z,99.90
2023-01-08T06:31:39.089Z,99.90
2023-01-08T06:34:07.404Z,99.90
2023-01-08T06:36:35.344Z,99.90
2023-01-08T06:39:05.840Z,99.90
2023-01-08T06:41:33.927Z,99.90
2023-01-08T06:44:02.054Z,99.90
2023-01-08T06:46:30.073Z,99.90
2023-01-08T06:48:57.966Z,99.90
2023-01-08T06:51:25.911Z,99.90
2023-01-08T06:53:53.752Z,99.90
2023-01-08T06:56:21.798Z,99.00
2023-01-08T06:58:49.673Z,97.50
2023-01-08T07:08:14.379Z,92.80
2023-01-08T07:10:43.167Z,92.20
2023-01-08T07:13:12.997Z,91.40
2023-01-08T07:15:41.634Z,90.90
2023-01-08T07:18:10.520Z,90.40
2023-01-08T07:20:38.573Z,90.50
2023-01-08T07:23:07.931Z,90.60
2023-01-08T07:25:36.030Z,91.00
2023-01-08T07:28:03.982Z,91.00
2023-01-08T07:30:32.079Z,91.30
2023-01-08T07:33:00.698Z,91.30
2023-01-08T07:35:29.368Z,91.10
2023-01-08T07:37:57.307Z,90.90
2023-01-08T07:40:25.180Z,90.80
2023-01-08T07:43:03.500Z,90.70
2023-01-08T07:45:31.678Z,90.50
2023-01-08T07:48:00.213Z,90.50
2023-01-08T07:50:28.260Z,90.30
2023-01-08T07:53:02.574Z,90.00
2023-01-08T07:55:31.056Z,89.80
2023-01-08T07:57:59.175Z,89.20
2023-01-08T08:00:27.066Z,88.50
2023-01-08T08:02:55.276Z,87.40
2023-01-08T08:05:23.315Z,86.50
2023-01-08T08:07:51.241Z,84.90
2023-01-08T08:10:19.143Z,83.60
2023-01-08T08:12:47.048Z,82.50
2023-01-08T08:15:15.134Z,81.20
2023-01-08T08:17:46.984Z,80.20
2023-01-08T08:20:16.382Z,78.90
2023-01-08T08:22:44.435Z,77.50
2023-01-08T08:25:15.496Z,76.20
2023-01-08T08:27:43.559Z,74.90
2023-01-08T08:30:12.492Z,73.30
2023-01-08T08:32:40.415Z,72.30
2023-01-08T08:35:08.445Z,70.90
2023-01-08T08:37:36.412Z,69.70
2023-01-08T08:40:04.410Z,68.50
2023-01-08T08:42:32.271Z,67.50
2023-01-08T08:45:00.224Z,66.50
2023-01-08T08:47:28.043Z,65.50
2023-01-08T08:49:56.041Z,64.60
2023-01-08T08:52:23.962Z,63.80
2023-01-08T08:54:51.905Z,62.90
2023-01-08T08:57:19.710Z,62.00
2023-01-08T08:59:47.787Z,61.10
2023-01-08T09:02:15.926Z,60.60
2023-01-08T09:04:43.958Z,56.80
2023-01-08T09:07:11.793Z,53.20
2023-01-08T09:09:39.909Z,53.50
2023-01-08T09:12:08.160Z,53.70
2023-01-08T09:14:36.044Z,50.30
2023-01-08T09:17:03.910Z,49.80
2023-01-08T09:19:31.970Z,50.10
2023-01-08T09:21:59.847Z,49.10
2023-01-08T09:24:27.711Z,48.00
2023-01-08T09:26:55.818Z,46.20
2023-01-08T09:29:23.653Z,45.40
2023-01-08T09:31:51.832Z,44.90
2023-01-08T09:34:19.835Z,44.30
2023-01-08T09:36:47.784Z,42.80
2023-01-08T09:39:15.703Z,42.90
2023-01-08T09:41:45.620Z,42.40
2023-01-08T09:44:18.554Z,40.50
2023-01-08T09:46:47.127Z,41.30
2023-01-08T09:49:17.348Z,40.20
2023-01-08T09:51:45.498Z,39.60
2023-01-08T09:54:15.174Z,38.00
2023-01-08T09:56:43.047Z,38.30
2023-01-08T09:59:14.980Z,37.30
2023-01-08T10:01:45.031Z,37.00
2023-01-08T10:04:17.790Z,36.70
2023-01-08T10:07:09.076Z,36.90
2023-01-08T10:09:37.167Z,37.40
2023-01-08T10:12:05.703Z,36.40
2023-01-08T10:14:35.422Z,36.70
2023-01-08T10:17:29.672Z,35.70
2023-01-08T10:19:57.588Z,34.90
2023-01-08T10:22:26.473Z,33.70
2023-01-08T10:25:03.639Z,33.50
2023-01-08T10:27:31.539Z,32.80
2023-01-08T10:30:05.210Z,32.20
2023-01-08T10:32:34.955Z,31.30
2023-01-08T10:35:08.082Z,31.20
2023-01-08T10:37:40.485Z,31.40
2023-01-08T10:40:17.402Z,31.30
2023-01-08T10:42:46.260Z,31.30
2023-01-08T10:45:33.135Z,29.70
2023-01-08T10:55:18.627Z,29.50
2023-01-08T10:57:53.710Z,29.30
2023-01-08T11:00:34.584Z,29.60
2023-01-08T11:03:04.515Z,29.10
2023-01-08T11:05:33.980Z,28.90
2023-01-08T11:08:03.574Z,28.20
2023-01-08T11:10:33.220Z,28.60
2023-01-08T11:13:05.634Z,28.10
2023-01-08T11:15:38.129Z,28.70
2023-01-08T11:18:07.527Z,28.70
2023-01-08T11:20:35.865Z,27.30
2023-01-08T11:23:13.557Z,27.50
2023-01-08T11:32:10.109Z,27.60
2023-01-08T11:34:43.603Z,27.70
2023-01-08T11:37:14.487Z,26.70
2023-01-08T11:39:42.382Z,27.30
2023-01-08T11:42:10.665Z,27.60
2023-01-08T11:44:57.347Z,26.80
2023-01-08T11:47:38.791Z,27.20
2023-01-08T11:50:25.222Z,27.20
2023-01-08T11:53:04.384Z,27.20
2023-01-08T11:55:32.265Z,27.70
2023-01-08T11:58:07.642Z,27.00
2023-01-08T12:00:45.159Z,27.40
2023-01-08T12:03:31.975Z,28.20
2023-01-08T12:06:10.094Z,27.70
2023-01-08T12:08:50.867Z,28.50
2023-01-08T12:11:39.130Z,28.40
2023-01-08T12:14:17.253Z,29.10
2023-01-08T12:17:03.966Z,29.40
2023-01-08T12:19:45.469Z,29.00
2023-01-08T12:22:33.698Z,29.00
2023-01-08T12:25:21.264Z,29.10
2023-01-08T12:27:56.961Z,29.50
2023-01-08T12:30:28.458Z,29.50
2023-01-08T12:39:10.028Z,29.40
2023-01-08T12:41:40.105Z,29.60
2023-01-08T12:44:12.272Z,29.20
2023-01-08T12:46:43.316Z,29.20
2023-01-08T12:49:14.179Z,29.30
2023-01-08T12:51:50.548Z,29.90
2023-01-08T12:54:24.634Z,29.60
2023-01-08T12:57:03.106Z,30.00
2023-01-08T12:59:48.295Z,28.90
2023-01-08T13:02:39.419Z,29.70
2023-01-08T13:05:11.703Z,29.80
2023-01-08T13:07:44.425Z,29.80
2023-01-08T13:10:26.976Z,30.00
2023-01-08T13:12:55.802Z,31.20
2023-01-08T13:15:26.268Z,30.00
2023-01-08T13:17:55.237Z,30.20
2023-01-08T13:20:24.773Z,30.60
2023-01-08T13:23:00.435Z,30.10
2023-01-08T13:25:35.544Z,30.50
2023-01-08T13:28:39.037Z,32.00
2023-01-08T13:31:25.343Z,35.30
2023-01-08T13:33:53.881Z,37.10
2023-01-08T13:36:23.118Z,36.00
2023-01-08T13:39:20.145Z,37.50
2023-01-08T13:41:58.526Z,39.30
2023-01-08T13:44:27.530Z,40.90
2023-01-08T13:46:56.939Z,41.50
2023-01-08T13:49:34.013Z,39.90
2023-01-08T13:52:02.261Z,41.40
2023-01-08T13:54:32.939Z,42.90
2023-01-08T13:57:05.894Z,43.50
2023-01-08T13:59:41.404Z,44.60
2023-01-08T14:02:24.440Z,45.20
2023-01-08T14:04:52.780Z,46.20
2023-01-08T14:07:20.741Z,47.10
2023-01-08T14:09:48.651Z,48.20
2023-01-08T14:12:20.608Z,48.70
2023-01-08T14:14:51.184Z,49.20
2023-01-08T14:17:20.458Z,49.80
2023-01-08T14:19:48.769Z,50.70
2023-01-08T14:22:18.827Z,51.30
2023-01-08T14:24:54.669Z,51.70
2023-01-08T14:27:24.766Z,52.40
2023-01-08T14:29:53.182Z,53.00
2023-01-08T14:32:22.577Z,53.40
2023-01-08T14:34:51.311Z,53.90
2023-01-08T14:37:19.763Z,54.60
2023-01-08T14:39:54.506Z,55.00
2023-01-08T14:42:41.517Z,55.50
2023-01-08T14:45:18.849Z,55.90
2023-01-08T14:47:49.607Z,56.40
2023-01-08T14:50:28.453Z,56.80
2023-01-08T14:53:01.238Z,57.40
2023-01-08T14:55:29.547Z,57.80
2023-01-08T14:57:57.803Z,58.20
2023-01-08T15:00:27.071Z,58.60
2023-01-08T15:02:55.273Z,59.00
2023-01-08T15:05:30.385Z,59.30
2023-01-08T15:08:23.091Z,59.60
2023-01-08T15:11:05.022Z,59.90
2023-01-08T15:13:34.476Z,60.40
2023-01-08T15:16:07.533Z,60.90
2023-01-08T15:18:41.426Z,61.20
2023-01-08T15:21:10.081Z,61.70
2023-01-08T15:23:42.504Z,61.90
2023-01-08T15:26:14.431Z,62.20
2023-01-08T15:28:51.532Z,62.50
2023-01-08T15:31:26.727Z,63.10
2023-01-08T15:33:54.986Z,63.40
2023-01-08T15:36:22.973Z,64.00
2023-01-08T15:38:50.993Z,64.00
2023-01-08T15:41:39.110Z,64.40
2023-01-08T15:44:07.517Z,65.00
2023-01-08T15:46:35.524Z,65.50
2023-01-08T15:49:03.404Z,65.90
2023-01-08T15:51:32.986Z,66.10
2023-01-08T15:54:01.702Z,66.30
2023-01-08T15:56:30.022Z,66.60
2023-01-08T15:58:57.927Z,67.00
2023-01-08T16:01:27.306Z,67.40
2023-01-08T16:03:55.553Z,67.70
2023-01-08T16:06:23.544Z,67.70
2023-01-08T16:08:51.617Z,67.60
2023-01-08T16:11:19.946Z,67.70
2023-01-08T16:13:47.810Z,67.70
2023-01-08T16:16:16.412Z,67.80
2023-01-08T16:18:44.478Z,68.10
2023-01-08T16:21:12.901Z,68.60
2023-01-08T16:23:41.550Z,68.70
2023-01-08T16:26:13.633Z,68.80
2023-01-08T16:28:41.741Z,69.30
2023-01-08T16:31:09.865Z,69.70
2023-01-08T16:33:37.957Z,70.10
2023-01-08T16:36:07.273Z,70.50
2023-01-08T16:38:35.936Z,70.80
2023-01-08T16:41:05.121Z,70.90
2023-01-08T16:43:39.045Z,71.10
2023-01-08T16:46:11.610Z,71.00
2023-01-08T16:48:39.629Z,71.10
2023-01-08T16:51:08.741Z,71.20
2023-01-08T16:53:37.139Z,71.00
2023-01-08T16:56:05.714Z,71.20
2023-01-08T16:58:35.376Z,71.90
2023-01-08T17:01:07.159Z,72.50
2023-01-08T17:03:35.109Z,72.90
2023-01-08T17:06:09.696Z,73.40
2023-01-08T17:08:40.984Z,73.40
2023-01-08T17:11:13.485Z,73.50
2023-01-08T17:13:41.496Z,73.70
2023-01-08T17:16:10.712Z,73.50
2023-01-08T17:18:38.626Z,73.40
2023-01-08T17:21:07.215Z,73.60
2023-01-08T17:23:35.573Z,73.90
2023-01-08T17:26:07.040Z,73.60
2023-01-08T17:28:35.338Z,74.40
2023-01-08T17:31:06.422Z,74.60
2023-01-08T17:33:38.253Z,75.20
2023-01-08T17:36:10.428Z,74.90
2023-01-08T17:38:38.462Z,74.80
2023-01-08T17:41:09.430Z,74.80
2023-01-08T17:43:38.412Z,75.20
2023-01-08T17:46:07.024Z,75.30
2023-01-08T17:48:35.182Z,75.30
2023-01-08T17:51:09.277Z,75.40
2023-01-08T17:53:37.533Z,75.60
2023-01-08T17:56:06.146Z,75.50
2023-01-08T17:58:34.156Z,75.80
2023-01-08T18:01:02.118Z,75.90
2023-01-08T18:03:30.180Z,76.10
2023-01-08T18:05:58.111Z,75.60
2023-01-08T18:08:26.158Z,75.90
2023-01-08T18:10:53.963Z,75.90
2023-01-08T18:13:22.082Z,76.00
2023-01-08T18:15:50.058Z,76.20
2023-01-08T18:18:17.907Z,76.20
2023-01-08T18:20:45.736Z,76.10
2023-01-08T18:23:13.677Z,76.00
2023-01-08T18:25:41.763Z,76.10
2023-01-08T18:28:09.670Z,76.30
2023-01-08T18:30:37.591Z,76.70
2023-01-08T18:33:05.910Z,76.60
2023-01-08T18:35:33.833Z,76.70
2023-01-08T18:38:01.755Z,77.00
2023-01-08T18:40:29.725Z,76.90
2023-01-08T18:42:57.960Z,76.30
2023-01-08T18:45:25.884Z,76.60
2023-01-08T18:47:54.043Z,76.60
2023-01-08T18:50:21.922Z,76.80
2023-01-08T18:52:50.249Z,76.80
2023-01-08T18:55:18.164Z,76.60
2023-01-08T18:57:47.553Z,77.10
2023-01-08T19:00:15.651Z,77.10
2023-01-08T19:02:44.434Z,77.30
2023-01-08T19:05:13.376Z,77.10
2023-01-08T19:07:41.870Z,76.90
2023-01-08T19:10:11.102Z,77.40
2023-01-08T19:12:39.591Z,77.50
2023-01-08T19:15:07.562Z,77.60
2023-01-08T19:17:35.930Z,78.00
2023-01-08T19:20:04.268Z,77.90
2023-01-08T19:22:32.963Z,77.50
2023-01-08T19:25:00.871Z,77.70
2023-01-08T19:27:28.883Z,78.40
2023-01-08T19:29:56.766Z,78.20
2023-01-08T19:32:24.896Z,79.40
2023-01-08T19:34:53.953Z,80.30
2023-01-08T19:37:22.030Z,81.00
2023-01-08T19:39:49.939Z,81.20
2023-01-08T19:42:36.396Z,81.20
2023-01-08T19:45:04.626Z,80.60
2023-01-08T19:47:32.605Z,80.90
2023-01-08T19:50:00.516Z,81.20
2023-01-08T19:52:28.673Z,81.60
2023-01-08T19:54:58.582Z,82.00
2023-01-08T19:57:26.579Z,82.80
2023-01-08T19:59:54.419Z,82.80
2023-01-08T20:02:22.485Z,82.80
2023-01-08T20:04:50.483Z,82.90
2023-01-08T20:07:18.392Z,83.20
2023-01-08T20:09:46.274Z,83.70
2023-01-08T20:12:15.204Z,83.70
2023-01-08T20:14:43.136Z,83.90
2023-01-08T20:17:12.122Z,84.10
2023-01-08T20:19:40.127Z,84.30
2023-01-08T20:22:08.035Z,84.30
2023-01-08T20:24:36.075Z,84.50
2023-01-08T20:27:04.045Z,85.00
2023-01-08T20:29:33.154Z,85.00
2023-01-08T20:32:01.689Z,85.20
2023-01-08T20:34:29.574Z,85.60
2023-01-08T20:36:57.783Z,85.60
2023-01-08T20:39:25.734Z,86.00
2023-01-08T20:41:55.852Z,86.10
2023-01-08T20:44:28.995Z,86.50
2023-01-08T20:46:56.876Z,86.90
2023-01-08T20:49:26.949Z,87.00
2023-01-08T20:51:59.074Z,86.90
2023-01-08T20:54:28.241Z,86.70
2023-01-08T20:56:57.120Z,87.40
2023-01-08T20:59:25.399Z,87.50
2023-01-08T21:01:53.417Z,87.60
2023-01-08T21:04:21.994Z,87.70
2023-01-08T21:06:49.929Z,87.90
2023-01-08T21:09:18.579Z,88.40
2023-01-08T21:11:46.405Z,88.60
2023-01-08T21:14:14.639Z,88.80
2023-01-08T21:16:42.822Z,88.60
2023-01-08T21:19:10.883Z,89.00
2023-01-08T21:21:40.699Z,89.20
2023-01-08T21:24:09.926Z,89.40
2023-01-08T21:26:41.019Z,89.70
2023-01-08T21:29:09.453Z,89.90
2023-01-08T21:31:38.331Z,89.80
2023-01-08T21:34:06.581Z,90.10
2023-01-08T21:36:34.507Z,90.30
2023-01-08T21:39:02.503Z,90.20
2023-01-08T21:41:49.541Z,90.40
2023-01-08T21:44:40.746Z,90.50
2023-01-08T21:47:10.016Z,90.60
2023-01-08T21:49:38.155Z,90.80
2023-01-08T21:52:25.346Z,90.90
2023-01-08T21:54:53.261Z,91.00
2023-01-08T21:57:21.249Z,91.10
2023-01-08T21:59:50.426Z,91.30
2023-01-08T22:02:19.235Z,91.40
2023-01-08T22:04:47.640Z,91.40
2023-01-08T22:07:16.024Z,91.30
2023-01-08T22:09:44.006Z,91.50
2023-01-08T22:12:14.347Z,91.50
2023-01-08T22:14:42.361Z,91.60
2023-01-08T22:17:10.821Z,91.70
2023-01-08T22:19:39.052Z,91.60
2023-01-08T22:22:10.291Z,91.70
2023-01-08T22:24:39.663Z,91.80
2023-01-08T22:27:08.494Z,91.80
2023-01-08T22:29:37.236Z,92.00
2023-01-08T22:32:05.318Z,92.00
2023-01-08T22:34:33.889Z,91.90
2023-01-08T22:37:02.187Z,91.90
2023-01-08T22:39:30.259Z,92.00
2023-01-08T22:41:58.325Z,92.20
2023-01-08T22:44:26.234Z,92.30
2023-01-08T22:46:54.363Z,92.50
2023-01-08T22:49:22.287Z,92.60
2023-01-08T22:51:50.357Z,92.50
2023-01-08T22:54:18.450Z,92.70
2023-01-08T22:56:46.437Z,92.60
2023-01-08T22:59:14.350Z,92.80
2023-01-08T23:01:42.345Z,93.00
2023-01-08T23:04:10.555Z,92.90
2023-01-08T23:06:38.467Z,93.00
2023-01-08T23:09:06.501Z,92.90
2023-01-08T23:11:34.402Z,92.90
2023-01-08T23:14:02.374Z,93.00
2023-01-08T23:16:30.355Z,93.10
2023-01-08T23:18:58.445Z,93.20
2023-01-08T23:21:26.715Z,93.30
2023-01-08T23:23:54.729Z,93.50
2023-01-08T23:26:29.413Z,93.50
2023-01-08T23:28:57.812Z,93.50
2023-01-08T23:31:26.722Z,93.50
2023-01-08T23:33:55.251Z,93.60
2023-01-08T23:36:23.339Z,93.70
2023-01-08T23:38:53.008Z,94.00
2023-01-08T23:41:23.349Z,94.00
2023-01-08T23:43:52.697Z,94.20
2023-01-08T23:46:20.481Z,94.20
2023-01-08T23:48:48.360Z,94.30
2023-01-08T23:51:16.239Z,94.20
2023-01-08T23:53:44.300Z,94.30
2023-01-08T23:56:12.168Z,94.30
2023-01-08T23:58:39.983Z,94.50
